sensor_id;sensor_type;location;lat;lon;timestamp;P1;durP1;ratioP1;P2;durP2;ratioP2
13366;SDS011;6752;52.612;13.630;2024-01-11T00:00:59;12.37;;;5.80;;
13366;SDS011;6752;52.612;13.630;2024-01-11T00:06:02;20.33;;;6.17;;
13366;SDS011;6752;52.612;13.630;2024-01-11T00:11:04;15.13;;;7.23;;
13366;SDS011;6752;52.612;13.630;2024-01-11T00:16:07;16.73;;;6.87;;
13366;SDS011;6752;52.612;13.630;2024-01-11T00:21:09;13.83;;;4.80;;
13366;SDS011;6752;52.612;13.630;2024-01-11T00:26:14;12.77;;;6.13;;
13366;SDS011;6752;52.612;13.630;2024-01-11T00:31:16;13.83;;;5.67;;
13366;SDS011;6752;52.612;13.630;2024-01-11T00:36:19;14.03;;;6.83;;
13366;SDS011;6752;52.612;13.630;2024-01-11T00:41:21;14.63;;;6.93;;
13366;SDS011;6752;52.612;13.630;2024-01-11T00:46:24;15.60;;;7.27;;
13366;SDS011;6752;52.612;13.630;2024-01-11T00:51:26;19.07;;;7.93;;
13366;SDS011;6752;52.612;13.630;2024-01-11T00:56:28;24.90;;;8.23;;
13366;SDS011;6752;52.612;13.630;2024-01-11T01:01:31;18.03;;;6.10;;
13366;SDS011;6752;52.612;13.630;2024-01-11T01:06:33;11.00;;;6.10;;
13366;SDS011;6752;52.612;13.630;2024-01-11T01:11:35;13.20;;;6.57;;
13366;SDS011;6752;52.612;13.630;2024-01-11T01:16:38;16.40;;;7.00;;
13366;SDS011;6752;52.612;13.630;2024-01-11T01:21:40;14.77;;;7.23;;
13366;SDS011;6752;52.612;13.630;2024-01-11T01:26:42;24.77;;;8.70;;
13366;SDS011;6752;52.612;13.630;2024-01-11T01:31:45;18.93;;;8.10;;
13366;SDS011;6752;52.612;13.630;2024-01-11T01:36:47;20.07;;;9.30;;
13366;SDS011;6752;52.612;13.630;2024-01-11T01:41:50;20.63;;;8.87;;
13366;SDS011;6752;52.612;13.630;2024-01-11T01:46:52;17.73;;;7.90;;
13366;SDS011;6752;52.612;13.630;2024-01-11T01:51:54;15.83;;;8.00;;
13366;SDS011;6752;52.612;13.630;2024-01-11T01:56:57;19.03;;;7.93;;
13366;SDS011;6752;52.612;13.630;2024-01-11T02:01:59;14.90;;;6.73;;
13366;SDS011;6752;52.612;13.630;2024-01-11T02:07:02;13.03;;;6.63;;
13366;SDS011;6752;52.612;13.630;2024-01-11T02:12:04;13.57;;;7.13;;
13366;SDS011;6752;52.612;13.630;2024-01-11T02:17:06;17.77;;;6.90;;
13366;SDS011;6752;52.612;13.630;2024-01-11T02:22:12;14.63;;;6.63;;
13366;SDS011;6752;52.612;13.630;2024-01-11T02:27:11;14.00;;;6.27;;
13366;SDS011;6752;52.612;13.630;2024-01-11T02:32:14;13.70;;;6.23;;
13366;SDS011;6752;52.612;13.630;2024-01-11T02:37:16;15.47;;;5.90;;
13366;SDS011;6752;52.612;13.630;2024-01-11T02:42:18;13.60;;;5.53;;
13366;SDS011;6752;52.612;13.630;2024-01-11T02:47:21;15.00;;;5.40;;
13366;SDS011;6752;52.612;13.630;2024-01-11T02:52:23;14.80;;;6.17;;
13366;SDS011;6752;52.612;13.630;2024-01-11T02:57:25;16.17;;;5.90;;
13366;SDS011;6752;52.612;13.630;2024-01-11T03:02:28;12.03;;;5.87;;
13366;SDS011;6752;52.612;13.630;2024-01-11T03:07:30;11.63;;;4.77;;
13366;SDS011;6752;52.612;13.630;2024-01-11T03:12:32;11.10;;;5.10;;
13366;SDS011;6752;52.612;13.630;2024-01-11T03:17:35;12.63;;;6.13;;
13366;SDS011;6752;52.612;13.630;2024-01-11T03:22:44;10.67;;;5.47;;
13366;SDS011;6752;52.612;13.630;2024-01-11T03:27:40;10.33;;;4.83;;
13366;SDS011;6752;52.612;13.630;2024-01-11T03:32:42;12.73;;;6.07;;
13366;SDS011;6752;52.612;13.630;2024-01-11T03:37:44;14.67;;;5.53;;
13366;SDS011;6752;52.612;13.630;2024-01-11T03:42:47;13.80;;;5.80;;
13366;SDS011;6752;52.612;13.630;2024-01-11T03:47:49;12.57;;;5.93;;
13366;SDS011;6752;52.612;13.630;2024-01-11T03:52:51;16.33;;;8.33;;
13366;SDS011;6752;52.612;13.630;2024-01-11T03:57:54;11.70;;;6.33;;
13366;SDS011;6752;52.612;13.630;2024-01-11T04:02:56;11.63;;;5.67;;
13366;SDS011;6752;52.612;13.630;2024-01-11T04:07:59;13.07;;;6.60;;
13366;SDS011;6752;52.612;13.630;2024-01-11T04:13:01;15.43;;;6.47;;
13366;SDS011;6752;52.612;13.630;2024-01-11T04:18:03;16.07;;;7.13;;
13366;SDS011;6752;52.612;13.630;2024-01-11T04:23:06;16.03;;;7.47;;
13366;SDS011;6752;52.612;13.630;2024-01-11T04:28:08;16.23;;;7.67;;
13366;SDS011;6752;52.612;13.630;2024-01-11T04:33:10;18.03;;;8.30;;
13366;SDS011;6752;52.612;13.630;2024-01-11T04:38:13;18.57;;;9.17;;
13366;SDS011;6752;52.612;13.630;2024-01-11T04:43:15;29.47;;;11.23;;
13366;SDS011;6752;52.612;13.630;2024-01-11T04:48:17;21.23;;;9.13;;
13366;SDS011;6752;52.612;13.630;2024-01-11T04:53:20;19.43;;;8.03;;
13366;SDS011;6752;52.612;13.630;2024-01-11T04:58:22;21.97;;;11.03;;
13366;SDS011;6752;52.612;13.630;2024-01-11T05:03:25;25.00;;;10.97;;
13366;SDS011;6752;52.612;13.630;2024-01-11T05:08:27;24.33;;;10.90;;
13366;SDS011;6752;52.612;13.630;2024-01-11T05:13:29;23.27;;;10.33;;
13366;SDS011;6752;52.612;13.630;2024-01-11T05:18:32;23.07;;;10.90;;
13366;SDS011;6752;52.612;13.630;2024-01-11T05:23:34;24.27;;;10.70;;
13366;SDS011;6752;52.612;13.630;2024-01-11T05:28:36;23.50;;;14.13;;
13366;SDS011;6752;52.612;13.630;2024-01-11T05:33:39;23.00;;;13.18;;
13366;SDS011;6752;52.612;13.630;2024-01-11T05:38:41;22.00;;;10.97;;
13366;SDS011;6752;52.612;13.630;2024-01-11T05:43:44;28.83;;;10.97;;
13366;SDS011;6752;52.612;13.630;2024-01-11T05:48:46;24.90;;;10.77;;
13366;SDS011;6752;52.612;13.630;2024-01-11T05:53:48;25.17;;;11.47;;
13366;SDS011;6752;52.612;13.630;2024-01-11T05:58:51;28.93;;;15.73;;
13366;SDS011;6752;52.612;13.630;2024-01-11T06:03:53;25.70;;;11.47;;
13366;SDS011;6752;52.612;13.630;2024-01-11T06:08:55;28.23;;;11.93;;
13366;SDS011;6752;52.612;13.630;2024-01-11T06:13:58;42.90;;;13.93;;
13366;SDS011;6752;52.612;13.630;2024-01-11T06:19:00;31.23;;;15.95;;
13366;SDS011;6752;52.612;13.630;2024-01-11T06:24:02;40.90;;;14.37;;
13366;SDS011;6752;52.612;13.630;2024-01-11T06:29:05;31.23;;;17.00;;
13366;SDS011;6752;52.612;13.630;2024-01-11T06:34:07;27.57;;;13.13;;
13366;SDS011;6752;52.612;13.630;2024-01-11T06:39:10;28.73;;;12.63;;
13366;SDS011;6752;52.612;13.630;2024-01-11T06:44:12;29.20;;;13.43;;
13366;SDS011;6752;52.612;13.630;2024-01-11T06:49:14;42.57;;;14.90;;
13366;SDS011;6752;52.612;13.630;2024-01-11T06:54:17;32.87;;;14.73;;
13366;SDS011;6752;52.612;13.630;2024-01-11T06:59:19;35.50;;;14.87;;
13366;SDS011;6752;52.612;13.630;2024-01-11T07:04:21;33.53;;;13.07;;
13366;SDS011;6752;52.612;13.630;2024-01-11T07:09:24;35.83;;;14.57;;
13366;SDS011;6752;52.612;13.630;2024-01-11T07:14:26;30.07;;;13.50;;
13366;SDS011;6752;52.612;13.630;2024-01-11T07:19:29;35.27;;;14.63;;
13366;SDS011;6752;52.612;13.630;2024-01-11T07:24:31;32.63;;;14.70;;
13366;SDS011;6752;52.612;13.630;2024-01-11T07:29:33;33.70;;;14.77;;
13366;SDS011;6752;52.612;13.630;2024-01-11T07:34:36;35.80;;;15.20;;
13366;SDS011;6752;52.612;13.630;2024-01-11T07:39:38;34.93;;;15.07;;
13366;SDS011;6752;52.612;13.630;2024-01-11T07:44:40;34.00;;;15.43;;
13366;SDS011;6752;52.612;13.630;2024-01-11T07:49:43;32.33;;;15.23;;
13366;SDS011;6752;52.612;13.630;2024-01-11T07:54:45;32.30;;;14.37;;
13366;SDS011;6752;52.612;13.630;2024-01-11T07:59:48;36.07;;;19.83;;
13366;SDS011;6752;52.612;13.630;2024-01-11T08:04:50;31.73;;;14.63;;
13366;SDS011;6752;52.612;13.630;2024-01-11T08:09:52;29.27;;;13.43;;
13366;SDS011;6752;52.612;13.630;2024-01-11T08:14:55;34.95;;;19.02;;
13366;SDS011;6752;52.612;13.630;2024-01-11T08:19:57;28.40;;;13.57;;
13366;SDS011;6752;52.612;13.630;2024-01-11T08:24:59;27.20;;;12.83;;
13366;SDS011;6752;52.612;13.630;2024-01-11T08:30:02;28.03;;;13.93;;
13366;SDS011;6752;52.612;13.630;2024-01-11T08:35:05;29.70;;;14.03;;
13366;SDS011;6752;52.612;13.630;2024-01-11T08:40:07;31.30;;;13.70;;
13366;SDS011;6752;52.612;13.630;2024-01-11T08:45:09;31.43;;;13.43;;
13366;SDS011;6752;52.612;13.630;2024-01-11T08:50:15;24.13;;;12.07;;
13366;SDS011;6752;52.612;13.630;2024-01-11T08:55:16;20.80;;;11.17;;
13366;SDS011;6752;52.612;13.630;2024-01-11T09:00:19;28.00;;;12.50;;
13366;SDS011;6752;52.612;13.630;2024-01-11T09:05:21;29.87;;;14.37;;
13366;SDS011;6752;52.612;13.630;2024-01-11T09:10:24;30.20;;;14.40;;
13366;SDS011;6752;52.612;13.630;2024-01-11T09:15:26;31.10;;;13.83;;
13366;SDS011;6752;52.612;13.630;2024-01-11T09:20:28;30.37;;;14.37;;
13366;SDS011;6752;52.612;13.630;2024-01-11T09:25:31;27.17;;;15.00;;
13366;SDS011;6752;52.612;13.630;2024-01-11T09:30:37;31.17;;;14.83;;
13366;SDS011;6752;52.612;13.630;2024-01-11T09:35:35;24.50;;;13.47;;
13366;SDS011;6752;52.612;13.630;2024-01-11T09:40:38;23.03;;;12.60;;
13366;SDS011;6752;52.612;13.630;2024-01-11T09:45:40;19.60;;;11.83;;
13366;SDS011;6752;52.612;13.630;2024-01-11T09:50:43;19.80;;;10.77;;
13366;SDS011;6752;52.612;13.630;2024-01-11T09:55:45;19.80;;;15.70;;
13366;SDS011;6752;52.612;13.630;2024-01-11T10:00:48;18.23;;;11.57;;
13366;SDS011;6752;52.612;13.630;2024-01-11T10:05:50;15.50;;;10.50;;
13366;SDS011;6752;52.612;13.630;2024-01-11T10:10:55;16.83;;;10.47;;
13366;SDS011;6752;52.612;13.630;2024-01-11T10:16:06;18.17;;;10.87;;
13366;SDS011;6752;52.612;13.630;2024-01-11T10:21:08;20.15;;;15.23;;
13366;SDS011;6752;52.612;13.630;2024-01-11T10:26:11;19.40;;;14.35;;
13366;SDS011;6752;52.612;13.630;2024-01-11T10:31:13;16.53;;;11.13;;
13366;SDS011;6752;52.612;13.630;2024-01-11T10:36:18;20.00;;;11.70;;
13366;SDS011;6752;52.612;13.630;2024-01-11T10:41:20;18.80;;;11.67;;
13366;SDS011;6752;52.612;13.630;2024-01-11T10:46:23;19.87;;;15.30;;
13366;SDS011;6752;52.612;13.630;2024-01-11T10:51:25;20.00;;;12.77;;
13366;SDS011;6752;52.612;13.630;2024-01-11T10:56:27;19.50;;;11.80;;
13366;SDS011;6752;52.612;13.630;2024-01-11T11:01:30;18.03;;;10.97;;
13366;SDS011;6752;52.612;13.630;2024-01-11T11:06:34;20.83;;;12.03;;
13366;SDS011;6752;52.612;13.630;2024-01-11T11:11:34;20.30;;;11.80;;
13366;SDS011;6752;52.612;13.630;2024-01-11T11:16:37;21.08;;;16.58;;
13366;SDS011;6752;52.612;13.630;2024-01-11T11:21:42;19.77;;;12.83;;
13366;SDS011;6752;52.612;13.630;2024-01-11T11:26:45;22.57;;;12.37;;
13366;SDS011;6752;52.612;13.630;2024-01-11T11:31:47;22.10;;;12.97;;
13366;SDS011;6752;52.612;13.630;2024-01-11T11:36:50;20.30;;;12.83;;
13366;SDS011;6752;52.612;13.630;2024-01-11T11:41:52;20.70;;;12.33;;
13366;SDS011;6752;52.612;13.630;2024-01-11T11:46:55;23.10;;;13.40;;
13366;SDS011;6752;52.612;13.630;2024-01-11T11:51:57;20.87;;;12.73;;
13366;SDS011;6752;52.612;13.630;2024-01-11T11:56:59;19.73;;;11.67;;
13366;SDS011;6752;52.612;13.630;2024-01-11T12:02:02;21.50;;;12.83;;
13366;SDS011;6752;52.612;13.630;2024-01-11T12:07:04;21.43;;;12.60;;
13366;SDS011;6752;52.612;13.630;2024-01-11T12:12:06;21.48;;;16.92;;
13366;SDS011;6752;52.612;13.630;2024-01-11T12:17:09;14.53;;;9.73;;
13366;SDS011;6752;52.612;13.630;2024-01-11T12:22:11;11.80;;;7.90;;
13366;SDS011;6752;52.612;13.630;2024-01-11T12:27:13;11.67;;;6.87;;
13366;SDS011;6752;52.612;13.630;2024-01-11T12:32:16;11.03;;;5.80;;
13366;SDS011;6752;52.612;13.630;2024-01-11T12:37:20;10.50;;;6.87;;
13366;SDS011;6752;52.612;13.630;2024-01-11T12:42:21;10.27;;;5.80;;
13366;SDS011;6752;52.612;13.630;2024-01-11T12:47:23;10.03;;;6.87;;
13366;SDS011;6752;52.612;13.630;2024-01-11T12:52:25;9.98;;;7.62;;
13366;SDS011;6752;52.612;13.630;2024-01-11T12:57:29;8.73;;;5.70;;
13366;SDS011;6752;52.612;13.630;2024-01-11T13:02:31;9.53;;;5.77;;
13366;SDS011;6752;52.612;13.630;2024-01-11T13:07:33;11.07;;;7.03;;
13366;SDS011;6752;52.612;13.630;2024-01-11T13:12:36;12.20;;;7.50;;
13366;SDS011;6752;52.612;13.630;2024-01-11T13:17:38;13.17;;;7.80;;
13366;SDS011;6752;52.612;13.630;2024-01-11T13:22:44;12.17;;;7.23;;
13366;SDS011;6752;52.612;13.630;2024-01-11T13:27:43;14.57;;;7.83;;
13366;SDS011;6752;52.612;13.630;2024-01-11T13:32:45;12.43;;;7.07;;
13366;SDS011;6752;52.612;13.630;2024-01-11T13:37:47;12.13;;;7.47;;
13366;SDS011;6752;52.612;13.630;2024-01-11T13:42:50;10.93;;;6.17;;
13366;SDS011;6752;52.612;13.630;2024-01-11T13:47:52;11.03;;;7.30;;
13366;SDS011;6752;52.612;13.630;2024-01-11T13:52:57;13.50;;;8.13;;
13366;SDS011;6752;52.612;13.630;2024-01-11T13:58:00;11.40;;;6.67;;
13366;SDS011;6752;52.612;13.630;2024-01-11T14:03:02;13.47;;;8.73;;
13366;SDS011;6752;52.612;13.630;2024-01-11T14:08:04;12.40;;;7.57;;
13366;SDS011;6752;52.612;13.630;2024-01-11T14:13:09;13.73;;;8.20;;
13366;SDS011;6752;52.612;13.630;2024-01-11T14:18:12;13.00;;;7.63;;
13366;SDS011;6752;52.612;13.630;2024-01-11T14:23:14;13.80;;;7.03;;
13366;SDS011;6752;52.612;13.630;2024-01-11T14:28:16;10.73;;;6.13;;
13366;SDS011;6752;52.612;13.630;2024-01-11T14:33:19;12.30;;;9.43;;
13366;SDS011;6752;52.612;13.630;2024-01-11T14:38:21;11.03;;;7.17;;
13366;SDS011;6752;52.612;13.630;2024-01-11T14:43:23;10.83;;;6.73;;
13366;SDS011;6752;52.612;13.630;2024-01-11T14:48:28;11.47;;;6.90;;
13366;SDS011;6752;52.612;13.630;2024-01-11T14:53:31;11.10;;;7.20;;
13366;SDS011;6752;52.612;13.630;2024-01-11T14:58:33;12.00;;;7.20;;
13366;SDS011;6752;52.612;13.630;2024-01-11T15:03:36;11.97;;;7.87;;
13366;SDS011;6752;52.612;13.630;2024-01-11T15:08:38;13.62;;;9.70;;
13366;SDS011;6752;52.612;13.630;2024-01-11T15:13:40;12.75;;;9.35;;
13366;SDS011;6752;52.612;13.630;2024-01-11T15:18:43;12.77;;;8.20;;
13366;SDS011;6752;52.612;13.630;2024-01-11T15:23:45;13.27;;;7.93;;
13366;SDS011;6752;52.612;13.630;2024-01-11T15:28:47;12.37;;;7.53;;
13366;SDS011;6752;52.612;13.630;2024-01-11T15:33:50;12.57;;;7.50;;
13366;SDS011;6752;52.612;13.630;2024-01-11T15:38:52;14.03;;;8.27;;
13366;SDS011;6752;52.612;13.630;2024-01-11T15:43:55;14.03;;;8.37;;
13366;SDS011;6752;52.612;13.630;2024-01-11T15:48:58;14.17;;;8.47;;
13366;SDS011;6752;52.612;13.630;2024-01-11T15:54:00;13.30;;;8.33;;
13366;SDS011;6752;52.612;13.630;2024-01-11T15:59:02;14.33;;;8.10;;
13366;SDS011;6752;52.612;13.630;2024-01-11T16:04:05;15.20;;;8.37;;
13366;SDS011;6752;52.612;13.630;2024-01-11T16:09:07;15.13;;;8.93;;
13366;SDS011;6752;52.612;13.630;2024-01-11T16:14:10;17.87;;;9.23;;
13366;SDS011;6752;52.612;13.630;2024-01-11T16:19:12;14.27;;;8.57;;
13366;SDS011;6752;52.612;13.630;2024-01-11T16:24:14;16.20;;;9.10;;
13366;SDS011;6752;52.612;13.630;2024-01-11T16:29:17;18.90;;;9.93;;
13366;SDS011;6752;52.612;13.630;2024-01-11T16:34:19;16.23;;;9.10;;
13366;SDS011;6752;52.612;13.630;2024-01-11T16:39:21;16.17;;;9.53;;
13366;SDS011;6752;52.612;13.630;2024-01-11T16:44:24;16.63;;;9.77;;
13366;SDS011;6752;52.612;13.630;2024-01-11T16:49:26;19.23;;;10.30;;
13366;SDS011;6752;52.612;13.630;2024-01-11T16:54:28;18.20;;;12.95;;
13366;SDS011;6752;52.612;13.630;2024-01-11T16:59:31;18.27;;;10.20;;
13366;SDS011;6752;52.612;13.630;2024-01-11T17:04:33;17.30;;;9.87;;
13366;SDS011;6752;52.612;13.630;2024-01-11T17:09:36;14.87;;;9.27;;
13366;SDS011;6752;52.612;13.630;2024-01-11T17:14:41;17.05;;;12.27;;
13366;SDS011;6752;52.612;13.630;2024-01-11T17:19:46;16.40;;;10.47;;
13366;SDS011;6752;52.612;13.630;2024-01-11T17:24:49;18.50;;;10.47;;
13366;SDS011;6752;52.612;13.630;2024-01-11T17:29:51;18.20;;;10.57;;
13366;SDS011;6752;52.612;13.630;2024-01-11T17:34:53;17.90;;;11.50;;
13366;SDS011;6752;52.612;13.630;2024-01-11T17:39:56;18.30;;;11.07;;
13366;SDS011;6752;52.612;13.630;2024-01-11T17:44:58;18.43;;;10.83;;
13366;SDS011;6752;52.612;13.630;2024-01-11T17:50:01;20.63;;;12.13;;
13366;SDS011;6752;52.612;13.630;2024-01-11T17:55:03;19.53;;;12.27;;
13366;SDS011;6752;52.612;13.630;2024-01-11T18:00:06;18.90;;;11.93;;
13366;SDS011;6752;52.612;13.630;2024-01-11T18:05:08;20.80;;;12.13;;
13366;SDS011;6752;52.612;13.630;2024-01-11T18:10:10;21.17;;;12.13;;
13366;SDS011;6752;52.612;13.630;2024-01-11T18:15:12;19.10;;;11.87;;
13366;SDS011;6752;52.612;13.630;2024-01-11T18:20:15;20.83;;;12.07;;
13366;SDS011;6752;52.612;13.630;2024-01-11T18:25:17;21.93;;;12.53;;
13366;SDS011;6752;52.612;13.630;2024-01-11T18:30:19;19.93;;;12.50;;
13366;SDS011;6752;52.612;13.630;2024-01-11T18:35:22;21.80;;;12.20;;
13366;SDS011;6752;52.612;13.630;2024-01-11T18:40:24;20.37;;;13.07;;
13366;SDS011;6752;52.612;13.630;2024-01-11T18:45:27;20.53;;;12.87;;
13366;SDS011;6752;52.612;13.630;2024-01-11T18:50:29;21.07;;;12.13;;
13366;SDS011;6752;52.612;13.630;2024-01-11T18:55:31;22.07;;;13.10;;
13366;SDS011;6752;52.612;13.630;2024-01-11T19:00:34;21.20;;;12.80;;
13366;SDS011;6752;52.612;13.630;2024-01-11T19:05:36;21.07;;;13.37;;
13366;SDS011;6752;52.612;13.630;2024-01-11T19:10:38;22.27;;;14.27;;
13366;SDS011;6752;52.612;13.630;2024-01-11T19:15:41;25.13;;;13.97;;
13366;SDS011;6752;52.612;13.630;2024-01-11T19:20:43;19.57;;;12.70;;
13366;SDS011;6752;52.612;13.630;2024-01-11T19:25:46;21.83;;;12.93;;
13366;SDS011;6752;52.612;13.630;2024-01-11T19:30:48;21.05;;;16.10;;
13366;SDS011;6752;52.612;13.630;2024-01-11T19:35:50;17.87;;;12.50;;
13366;SDS011;6752;52.612;13.630;2024-01-11T19:40:53;17.93;;;11.97;;
13366;SDS011;6752;52.612;13.630;2024-01-11T19:45:55;19.27;;;15.23;;
13366;SDS011;6752;52.612;13.630;2024-01-11T19:50:57;15.83;;;11.23;;
13366;SDS011;6752;52.612;13.630;2024-01-11T19:56:00;18.10;;;11.57;;
13366;SDS011;6752;52.612;13.630;2024-01-11T20:01:02;17.20;;;10.70;;
13366;SDS011;6752;52.612;13.630;2024-01-11T20:06:05;15.47;;;10.30;;
13366;SDS011;6752;52.612;13.630;2024-01-11T20:11:08;16.23;;;11.10;;
13366;SDS011;6752;52.612;13.630;2024-01-11T20:16:10;17.63;;;11.70;;
13366;SDS011;6752;52.612;13.630;2024-01-11T20:21:12;19.87;;;11.73;;
13366;SDS011;6752;52.612;13.630;2024-01-11T20:26:15;16.27;;;11.13;;
13366;SDS011;6752;52.612;13.630;2024-01-11T20:31:17;17.47;;;11.40;;
13366;SDS011;6752;52.612;13.630;2024-01-11T20:36:19;16.43;;;11.27;;
13366;SDS011;6752;52.612;13.630;2024-01-11T20:41:22;16.03;;;11.43;;
13366;SDS011;6752;52.612;13.630;2024-01-11T20:46:24;15.40;;;12.70;;
13366;SDS011;6752;52.612;13.630;2024-01-11T20:51:26;15.18;;;12.48;;
13366;SDS011;6752;52.612;13.630;2024-01-11T20:56:29;13.62;;;12.10;;
13366;SDS011;6752;52.612;13.630;2024-01-11T21:01:31;13.33;;;10.13;;
13366;SDS011;6752;52.612;13.630;2024-01-11T21:06:34;13.70;;;10.13;;
13366;SDS011;6752;52.612;13.630;2024-01-11T21:11:36;13.27;;;9.90;;
13366;SDS011;6752;52.612;13.630;2024-01-11T21:16:38;12.73;;;9.67;;
13366;SDS011;6752;52.612;13.630;2024-01-11T21:21:41;14.30;;;10.00;;
13366;SDS011;6752;52.612;13.630;2024-01-11T21:26:43;14.37;;;10.20;;
13366;SDS011;6752;52.612;13.630;2024-01-11T21:31:45;12.55;;;11.25;;
13366;SDS011;6752;52.612;13.630;2024-01-11T21:36:48;12.07;;;9.87;;
13366;SDS011;6752;52.612;13.630;2024-01-11T21:41:51;12.57;;;8.93;;
13366;SDS011;6752;52.612;13.630;2024-01-11T21:46:52;12.53;;;9.20;;
13366;SDS011;6752;52.612;13.630;2024-01-11T21:51:55;13.40;;;8.73;;
13366;SDS011;6752;52.612;13.630;2024-01-11T21:56:57;12.20;;;9.00;;
13366;SDS011;6752;52.612;13.630;2024-01-11T22:02:00;12.17;;;9.63;;
13366;SDS011;6752;52.612;13.630;2024-01-11T22:07:02;12.63;;;9.50;;
13366;SDS011;6752;52.612;13.630;2024-01-11T22:12:04;12.73;;;9.70;;
13366;SDS011;6752;52.612;13.630;2024-01-11T22:17:07;12.63;;;11.00;;
13366;SDS011;6752;52.612;13.630;2024-01-11T22:22:09;12.13;;;9.00;;
13366;SDS011;6752;52.612;13.630;2024-01-11T22:27:11;12.10;;;9.17;;
13366;SDS011;6752;52.612;13.630;2024-01-11T22:32:14;13.03;;;9.07;;
13366;SDS011;6752;52.612;13.630;2024-01-11T22:37:16;11.63;;;9.60;;
13366;SDS011;6752;52.612;13.630;2024-01-11T22:42:18;13.80;;;10.33;;
13366;SDS011;6752;52.612;13.630;2024-01-11T22:47:21;13.02;;;11.63;;
13366;SDS011;6752;52.612;13.630;2024-01-11T22:52:23;12.97;;;10.03;;
13366;SDS011;6752;52.612;13.630;2024-01-11T22:57:26;13.68;;;12.18;;
13366;SDS011;6752;52.612;13.630;2024-01-11T23:02:28;12.63;;;10.27;;
13366;SDS011;6752;52.612;13.630;2024-01-11T23:07:30;13.57;;;9.67;;
13366;SDS011;6752;52.612;13.630;2024-01-11T23:12:33;13.50;;;10.63;;
13366;SDS011;6752;52.612;13.630;2024-01-11T23:17:35;15.50;;;11.47;;
13366;SDS011;6752;52.612;13.630;2024-01-11T23:22:37;16.37;;;11.53;;
13366;SDS011;6752;52.612;13.630;2024-01-11T23:27:40;17.40;;;12.37;;
13366;SDS011;6752;52.612;13.630;2024-01-11T23:32:42;20.40;;;13.80;;
13366;SDS011;6752;52.612;13.630;2024-01-11T23:37:44;16.00;;;12.80;;
13366;SDS011;6752;52.612;13.630;2024-01-11T23:42:47;16.83;;;12.67;;
13366;SDS011;6752;52.612;13.630;2024-01-11T23:47:49;20.40;;;13.93;;
13366;SDS011;6752;52.612;13.630;2024-01-11T23:52:52;20.50;;;14.70;;
13366;SDS011;6752;52.612;13.630;2024-01-11T23:57:54;20.33;;;14.27;;
